Portada
METAR-TAF:

METAR-TAF

Aeroports :

Tenerife, Espanya

latitud: 28-28N, longitud: 016-19W, altitud: 632 m

Observació

L'informe es va fer fa 23 minuts, a les 06:00 UTC
Vent 6 kt del Oest
Temperatura 14°C
Humitat 33%
Pressió 1022 hPa
Visibilitat 10 km o més
sense núvols per sota de 1500 mi sense presència de cumulonimbus.

METAR: GCXO 290600Z 26006KT CAVOK 14/M02 Q1022 NOSIG

Hora: 06:23 (06:23 UTC)

Pronòstic

L'informe es va fer fa 4 hores i 23 minuts, a les 02:00 UTC
Pronòstic vàlid del 29 a les 03 UTC al 30 a les 03 UTC
Vent 5 kt del Sud
Visibilitat 10 km o més
sense núvols per sota de 1500 mi sense presència de cumulonimbus.

TAF: GCXO 290200Z 2903/3003 17005KT CAVOK TX22/2915Z TN10/2906Z

Observacions i pronòstics meteorològics de més de 4000 aeroports (METAR i TAF).

Les estacions disponibles són els punts grocs i vermells al mapa.

Posi el ratolí al punt desitjat per veure el nom de l'estació.

Feu clic per veure les observacions i els pronòstics meteorològics.

Per canviar el mapa: feu clic els botons verds amb una creu de color negre per apropar; al botó verd amb un guió per allunyar la imatge; o en les fletxes verdes per a mapes adjacents.


METAR-TAF: